Time;durP1;ratioP1;P1;durP2;ratioP2;P2;SDS_P1;SDS_P2;PMS_P1;PMS_P2;Temp;Humidity;BMP_temperature;BMP_pressure;BME280_temperature;BME280_humidity;BME280_pressure;Samples;Min_cycle;Max_cycle;Signal;HPM_P1;HPM_P2
2022/12/03 00:00:51;;;;;;;15.10;5.72;;;3.40;99.90;;;;;;5003016;28;20604;-74
2022/12/03 00:03:16;;;;;;;10.23;3.88;;;3.40;99.90;;;;;;5014012;28;20037;-74
2022/12/03 00:05:42;;;;;;;12.98;5.20;;;3.40;99.90;;;;;;5006709;28;20492;-73
2022/12/03 00:08:07;;;;;;;12.57;4.25;;;3.40;99.90;;;;;;5007282;28;20069;-73
2022/12/03 00:10:33;;;;;;;14.85;4.35;;;3.40;99.90;;;;;;5014405;28;20088;-73
2022/12/03 00:12:58;;;;;;;15.63;5.82;;;3.40;99.90;;;;;;4998449;28;20046;-73
2022/12/03 00:15:24;;;;;;;12.82;5.32;;;3.40;99.90;;;;;;5007401;28;20055;-73
2022/12/03 00:17:49;;;;;;;13.82;4.75;;;3.50;99.90;;;;;;5012630;28;20148;-74
2022/12/03 00:20:21;;;;;;;10.57;4.50;;;3.50;99.90;;;;;;5002715;28;20042;-73
2022/12/03 00:22:47;;;;;;;11.38;5.00;;;3.50;99.90;;;;;;5005834;28;20037;-74
2022/12/03 00:25:13;;;;;;;12.60;5.13;;;3.40;99.90;;;;;;5011154;28;20038;-73
2022/12/03 00:27:39;;;;;;;12.63;5.38;;;3.40;99.90;;;;;;5003805;28;20037;-74
2022/12/03 00:30:06;;;;;;;17.80;5.65;;;3.40;99.90;;;;;;4989974;28;20479;-74
2022/12/03 00:32:31;;;;;;;13.63;5.97;;;3.50;99.90;;;;;;4991029;28;20068;-74
2022/12/03 00:34:57;;;;;;;19.35;6.00;;;3.50;99.90;;;;;;5006175;28;20065;-74
2022/12/03 00:37:22;;;;;;;13.55;4.35;;;3.50;99.90;;;;;;4988731;28;20065;-74
2022/12/03 00:39:48;;;;;;;10.70;4.85;;;3.50;99.90;;;;;;5006850;28;20042;-74
2022/12/03 00:42:13;;;;;;;12.30;4.30;;;3.50;99.90;;;;;;5001320;28;20411;-74
2022/12/03 00:44:39;;;;;;;10.15;4.32;;;3.50;99.90;;;;;;5005989;28;20061;-74
2022/12/03 00:47:05;;;;;;;12.45;5.32;;;3.50;99.90;;;;;;5005421;28;20581;-73
2022/12/03 00:49:30;;;;;;;12.35;3.97;;;3.50;99.90;;;;;;5010062;28;20042;-73
2022/12/03 00:51:56;;;;;;;12.13;5.18;;;3.60;99.90;;;;;;5008317;28;20055;-74
2022/12/03 00:54:22;;;;;;;13.05;4.70;;;3.60;99.90;;;;;;5013716;28;20053;-73
2022/12/03 00:56:47;;;;;;;12.27;4.53;;;3.60;99.90;;;;;;5006636;28;20210;-74
2022/12/03 00:59:13;;;;;;;10.15;3.20;;;3.60;99.90;;;;;;5006505;28;20079;-74
2022/12/03 01:01:38;;;;;;;14.07;5.07;;;3.60;99.90;;;;;;5005292;28;20037;-73
2022/12/03 01:04:04;;;;;;;14.82;5.78;;;3.60;99.90;;;;;;4986284;28;20038;-73
2022/12/03 01:06:30;;;;;;;17.67;5.80;;;3.60;99.90;;;;;;5011914;28;20042;-74
2022/12/03 01:08:55;;;;;;;9.38;4.07;;;3.50;99.90;;;;;;4981462;28;20036;-73
2022/12/03 01:11:36;;;;;;;14.32;5.40;;;3.60;99.90;;;;;;4999570;28;20045;-73
2022/12/03 01:14:03;;;;;;;13.20;5.28;;;3.60;99.90;;;;;;5001448;28;20074;-74
2022/12/03 01:16:28;;;;;;;14.27;5.22;;;3.60;99.90;;;;;;5005780;28;20092;-74
2022/12/03 01:18:54;;;;;;;14.60;4.53;;;3.60;99.90;;;;;;4984302;28;20042;-74
2022/12/03 01:21:19;;;;;;;11.63;5.43;;;3.60;99.90;;;;;;4988091;28;20092;-73
2022/12/03 01:23:45;;;;;;;9.05;4.25;;;3.60;99.90;;;;;;5003420;28;20308;-73
2022/12/03 01:26:11;;;;;;;13.48;4.43;;;3.60;99.90;;;;;;5005991;28;20044;-74
2022/12/03 01:28:36;;;;;;;10.15;5.32;;;3.60;99.90;;;;;;5003876;28;20127;-73
2022/12/03 01:33:46;;;;;;;14.55;5.72;;;3.60;99.90;;;;;;5003246;28;20129;-74
2022/12/03 01:36:11;;;;;;;11.77;4.05;;;3.60;99.90;;;;;;5002531;28;20883;-73
2022/12/03 01:38:37;;;;;;;9.85;3.95;;;3.60;99.90;;;;;;5007544;28;20045;-73
2022/12/03 01:41:03;;;;;;;10.82;4.57;;;3.60;99.90;;;;;;5005258;28;20411;-73
2022/12/03 01:43:29;;;;;;;12.20;3.85;;;3.70;99.90;;;;;;5017595;28;20043;-74
2022/12/03 01:45:54;;;;;;;11.38;5.55;;;3.60;99.90;;;;;;5003092;28;20034;-74
2022/12/03 01:48:20;;;;;;;12.23;5.25;;;3.60;99.90;;;;;;5002079;28;20371;-74
2022/12/03 01:50:46;;;;;;;12.88;4.78;;;3.60;99.90;;;;;;4996516;28;20069;-74
2022/12/03 01:53:14;;;;;;;8.88;3.55;;;3.60;99.90;;;;;;5016657;28;20128;-74
2022/12/03 01:55:42;;;;;;;10.00;3.95;;;3.60;99.90;;;;;;5003876;28;20069;-74
2022/12/03 01:58:11;;;;;;;10.98;4.45;;;3.60;99.90;;;;;;5002538;28;20695;-73
2022/12/03 02:00:37;;;;;;;12.85;4.78;;;3.60;99.90;;;;;;4986183;28;20046;-73
2022/12/03 02:03:10;;;;;;;13.73;4.53;;;3.60;99.90;;;;;;5007284;28;20034;-74
2022/12/03 02:05:37;;;;;;;11.25;4.95;;;3.60;99.90;;;;;;4986934;28;20041;-74
2022/12/03 02:08:30;;;;;;;13.32;4.30;;;3.60;99.90;;;;;;5001854;28;20409;-73
2022/12/03 02:10:58;;;;;;;7.82;3.97;;;3.60;99.90;;;;;;4976805;28;20495;-73
2022/12/03 02:13:24;;;;;;;10.98;4.55;;;3.60;99.90;;;;;;5007938;28;20119;-74
2022/12/03 02:15:49;;;;;;;10.95;5.10;;;3.70;99.90;;;;;;5002661;28;20038;-73
2022/12/03 02:18:15;;;;;;;21.75;5.45;;;3.70;99.90;;;;;;5006146;28;20026;-74
2022/12/03 02:20:51;;;;;;;12.40;4.72;;;3.70;99.90;;;;;;5006135;28;20050;-73
2022/12/03 02:23:33;;;;;;;10.57;4.40;;;3.70;99.90;;;;;;4987026;28;20038;-73
2022/12/03 02:25:58;;;;;;;9.02;3.45;;;3.60;99.90;;;;;;5009008;28;20037;-73
2022/12/03 02:28:24;;;;;;;9.90;4.55;;;3.70;99.90;;;;;;5008677;28;20052;-73
2022/12/03 02:30:49;;;;;;;9.35;4.40;;;3.60;99.90;;;;;;5006649;28;20080;-73
2022/12/03 02:33:15;;;;;;;11.27;4.53;;;3.70;99.90;;;;;;5007624;28;20038;-74
2022/12/03 02:35:41;;;;;;;16.42;5.10;;;3.70;99.90;;;;;;5005340;28;20755;-74
2022/12/03 02:38:18;;;;;;;12.15;4.65;;;3.70;99.90;;;;;;5009573;28;20112;-74
2022/12/03 02:40:46;;;;;;;18.98;6.07;;;3.70;99.90;;;;;;5005386;28;20045;-74
2022/12/03 02:43:15;;;;;;;14.00;5.05;;;3.70;99.90;;;;;;5009393;28;20045;-74
2022/12/03 02:45:44;;;;;;;12.98;4.65;;;3.70;99.90;;;;;;5003269;28;20041;-74
2022/12/03 02:48:30;;;;;;;10.05;5.15;;;3.70;99.90;;;;;;5005614;28;20052;-74
2022/12/03 02:50:59;;;;;;;9.07;3.90;;;3.70;99.90;;;;;;5010389;28;20123;-74
2022/12/03 02:53:41;;;;;;;7.80;3.63;;;3.70;99.90;;;;;;5004448;28;20047;-73
2022/12/03 02:56:10;;;;;;;8.65;4.20;;;3.70;99.90;;;;;;5004448;28;20124;-73
2022/12/03 02:58:36;;;;;;;10.63;4.25;;;3.70;99.90;;;;;;5004411;28;20041;-74
2022/12/03 03:01:03;;;;;;;12.07;5.00;;;3.70;99.90;;;;;;5012764;28;20055;-73
2022/12/03 03:03:30;;;;;;;15.32;5.35;;;3.70;99.90;;;;;;5005910;28;20560;-74
2022/12/03 03:05:58;;;;;;;9.68;4.55;;;3.70;99.90;;;;;;5011468;28;20042;-73
2022/12/03 03:08:25;;;;;;;7.07;3.03;;;3.70;99.90;;;;;;5005611;28;20079;-73
2022/12/03 03:10:51;;;;;;;14.60;5.75;;;3.70;99.90;;;;;;5010301;28;20551;-73
2022/12/03 03:13:18;;;;;;;14.55;5.47;;;3.70;99.90;;;;;;5007243;28;20129;-73
2022/12/03 03:15:45;;;;;;;12.85;5.50;;;3.70;99.90;;;;;;5019608;28;20404;-73
2022/12/03 03:18:12;;;;;;;13.18;4.25;;;3.80;99.90;;;;;;5004588;28;20491;-74
2022/12/03 03:20:39;;;;;;;9.45;3.75;;;3.70;99.90;;;;;;5005200;28;20053;-74
2022/12/03 03:23:11;;;;;;;8.43;4.05;;;3.70;99.90;;;;;;5006098;28;20165;-73
2022/12/03 03:25:39;;;;;;;9.50;4.15;;;3.70;99.90;;;;;;4985663;28;20034;-74
2022/12/03 03:28:06;;;;;;;13.60;5.13;;;3.70;99.90;;;;;;4991685;28;20053;-73
2022/12/03 03:30:32;;;;;;;11.95;4.55;;;3.70;99.90;;;;;;5009232;28;20050;-73
2022/12/03 03:32:58;;;;;;;8.82;3.22;;;3.60;99.90;;;;;;5007917;28;20038;-73
2022/12/03 03:35:24;;;;;;;8.45;5.05;;;3.60;99.90;;;;;;5009167;28;20098;-73
2022/12/03 03:37:52;;;;;;;8.77;3.60;;;3.60;99.90;;;;;;5005660;28;20046;-74
2022/12/03 03:40:19;;;;;;;9.80;3.65;;;3.60;99.90;;;;;;5005963;28;20403;-73
2022/12/03 03:42:45;;;;;;;9.70;4.13;;;3.60;99.90;;;;;;5005866;28;20042;-73
2022/12/03 03:45:11;;;;;;;11.27;4.70;;;3.60;99.90;;;;;;5006527;28;20575;-73
2022/12/03 03:47:37;;;;;;;12.18;5.32;;;3.50;99.90;;;;;;5007868;28;20045;-74
2022/12/03 03:50:04;;;;;;;9.57;4.20;;;3.50;99.90;;;;;;5011728;28;20044;-73
2022/12/03 03:52:30;;;;;;;13.55;4.93;;;3.50;99.90;;;;;;4989264;28;20053;-73
2022/12/03 03:54:56;;;;;;;8.77;3.88;;;3.50;99.90;;;;;;5003143;28;20045;-73
2022/12/03 03:57:21;;;;;;;10.52;4.65;;;3.50;99.90;;;;;;5023377;28;20046;-73
2022/12/03 03:59:47;;;;;;;12.13;4.82;;;3.50;99.90;;;;;;5006348;28;20049;-73
2022/12/03 04:02:21;;;;;;;9.57;4.25;;;3.50;99.90;;;;;;4991361;28;20125;-73
2022/12/03 04:04:47;;;;;;;11.30;4.05;;;3.50;99.90;;;;;;5006274;28;20487;-74
2022/12/03 04:07:14;;;;;;;10.50;4.43;;;3.50;99.90;;;;;;5006541;28;20041;-74
2022/12/03 04:09:40;;;;;;;12.15;5.32;;;3.50;99.90;;;;;;5003564;28;21649;-73
2022/12/03 04:14:50;;;;;;;10.88;4.38;;;3.50;99.90;;;;;;5005858;28;20507;-73
2022/12/03 04:17:16;;;;;;;9.10;4.60;;;3.50;99.90;;;;;;5005623;28;20044;-74
2022/12/03 04:19:41;;;;;;;14.82;5.25;;;3.40;99.90;;;;;;5009583;28;20058;-74
2022/12/03 04:28:47;;;;;;;12.05;4.55;;;3.50;99.90;;;;;;5003696;28;20049;-73
2022/12/03 04:30:21;;;;;;;12.88;4.95;;;3.40;99.90;;;;;;5010095;28;20041;-73
2022/12/03 04:35:42;;;;;;;11.45;4.28;;;3.40;99.90;;;;;;5007876;28;20041;-73
2022/12/03 04:38:13;;;;;;;9.55;4.50;;;3.40;99.90;;;;;;4994495;28;20072;-73
2022/12/03 04:43:24;;;;;;;7.63;3.57;;;3.40;99.90;;;;;;5008376;28;20057;-73
2022/12/03 04:45:50;;;;;;;10.02;4.50;;;3.40;99.90;;;;;;4989976;28;20049;-74
2022/12/03 04:48:15;;;;;;;8.30;3.40;;;3.40;99.90;;;;;;4989607;28;20049;-73
2022/12/03 04:50:41;;;;;;;10.40;4.43;;;3.40;99.90;;;;;;4992060;28;20080;-74
2022/12/03 04:53:07;;;;;;;16.88;6.20;;;3.40;99.90;;;;;;5021055;28;20495;-73
2022/12/03 04:55:32;;;;;;;9.05;3.80;;;3.40;99.90;;;;;;4987239;28;20042;-74
2022/12/03 04:57:58;;;;;;;12.30;3.75;;;3.40;99.90;;;;;;5002948;28;20820;-74
2022/12/03 05:00:23;;;;;;;17.23;5.75;;;3.40;99.90;;;;;;5006322;28;20489;-74
2022/12/03 05:02:49;;;;;;;9.40;3.65;;;3.40;99.90;;;;;;5002437;28;20030;-74
2022/12/03 05:05:15;;;;;;;9.85;4.07;;;3.40;99.90;;;;;;5006150;28;20037;-74
2022/12/03 05:07:40;;;;;;;11.82;5.25;;;3.40;99.90;;;;;;5005139;28;20512;-74
2022/12/03 05:10:06;;;;;;;11.05;3.97;;;3.40;99.90;;;;;;5005565;28;20037;-74
2022/12/03 05:12:32;;;;;;;13.15;4.82;;;3.40;99.90;;;;;;5007443;28;20120;-74
2022/12/03 05:14:57;;;;;;;11.60;4.70;;;3.40;99.90;;;;;;5006338;28;20444;-74
2022/12/03 05:17:23;;;;;;;10.73;5.28;;;3.40;99.90;;;;;;5001985;28;20041;-74
2022/12/03 05:22:33;;;;;;;14.88;3.97;;;3.40;99.90;;;;;;4999896;28;20522;-74
2022/12/03 05:24:58;;;;;;;6.28;3.53;;;3.40;99.90;;;;;;5005732;28;20029;-74
2022/12/03 05:27:24;;;;;;;19.73;5.60;;;3.40;99.90;;;;;;5006311;28;20124;-74
2022/12/03 05:29:50;;;;;;;12.95;4.93;;;3.40;99.90;;;;;;5006286;28;20137;-73
2022/12/03 05:32:16;;;;;;;11.52;5.18;;;3.40;99.90;;;;;;4987114;28;20061;-74
2022/12/03 05:34:41;;;;;;;14.88;4.72;;;3.40;99.90;;;;;;4987558;28;20559;-74
2022/12/03 05:37:07;;;;;;;10.25;4.88;;;3.40;99.90;;;;;;5004878;28;20087;-73
2022/12/03 05:39:32;;;;;;;14.35;5.38;;;3.40;99.90;;;;;;5006400;28;20877;-74
2022/12/03 05:44:42;;;;;;;13.90;4.88;;;3.40;99.90;;;;;;5005979;28;20050;-74
2022/12/03 05:47:08;;;;;;;10.02;4.68;;;3.40;99.90;;;;;;5008759;28;21701;-74
2022/12/03 05:49:33;;;;;;;9.82;3.78;;;3.40;99.90;;;;;;4986993;28;20503;-74
2022/12/03 05:51:59;;;;;;;10.43;4.60;;;3.40;99.90;;;;;;5004724;28;21011;-74
2022/12/03 05:54:24;;;;;;;10.05;4.28;;;3.40;99.90;;;;;;5005883;28;20033;-74
2022/12/03 05:56:50;;;;;;;12.73;4.55;;;3.40;99.90;;;;;;5009208;28;20042;-74
2022/12/03 05:59:16;;;;;;;9.27;4.38;;;3.40;99.90;;;;;;5009262;28;20069;-74
2022/12/03 06:01:42;;;;;;;9.20;4.32;;;3.40;99.90;;;;;;5011302;28;20117;-74
2022/12/03 06:04:07;;;;;;;9.85;4.20;;;3.40;99.90;;;;;;5005125;28;20045;-74
2022/12/03 06:06:33;;;;;;;11.65;4.28;;;3.40;99.90;;;;;;5006152;28;20037;-73
2022/12/03 06:08:58;;;;;;;9.68;3.67;;;3.40;99.90;;;;;;4992914;28;20087;-74
2022/12/03 06:11:24;;;;;;;9.07;4.25;;;3.30;99.90;;;;;;5012588;28;20096;-74
2022/12/03 06:13:50;;;;;;;11.02;4.22;;;3.40;99.90;;;;;;5010949;28;20092;-73
2022/12/03 06:16:15;;;;;;;11.30;4.47;;;3.30;99.90;;;;;;5002766;28;20539;-74
2022/12/03 06:18:41;;;;;;;10.27;4.03;;;3.30;99.90;;;;;;5004932;28;20447;-74
2022/12/03 06:21:06;;;;;;;7.13;4.13;;;3.30;99.90;;;;;;5008765;28;20459;-74
2022/12/03 06:23:32;;;;;;;10.35;4.60;;;3.30;99.90;;;;;;5013439;28;20026;-74
2022/12/03 06:25:57;;;;;;;13.60;5.68;;;3.30;99.90;;;;;;4984235;28;20057;-74
2022/12/03 06:28:23;;;;;;;9.25;4.50;;;3.30;99.90;;;;;;4992835;28;20073;-74
2022/12/03 06:30:48;;;;;;;13.30;5.55;;;3.30;99.90;;;;;;5004524;28;20073;-74
2022/12/03 06:33:14;;;;;;;13.82;4.35;;;3.30;99.90;;;;;;5005727;28;20034;-74
2022/12/03 06:35:40;;;;;;;10.63;3.67;;;3.30;99.90;;;;;;5009998;28;20053;-74
2022/12/03 06:38:05;;;;;;;9.23;3.88;;;3.30;99.90;;;;;;4992435;28;20065;-73
2022/12/03 06:40:31;;;;;;;9.48;4.70;;;3.30;99.90;;;;;;5005271;28;20034;-74
2022/12/03 06:42:57;;;;;;;11.38;4.47;;;3.30;99.90;;;;;;4987997;28;20116;-74
2022/12/03 06:45:22;;;;;;;12.63;4.80;;;3.30;99.90;;;;;;5013992;28;20037;-74
2022/12/03 06:47:48;;;;;;;12.52;4.35;;;3.30;99.90;;;;;;5008467;28;20125;-74
2022/12/03 06:50:13;;;;;;;9.85;5.45;;;3.20;99.90;;;;;;5003512;28;20383;-74
2022/12/03 06:52:39;;;;;;;13.15;4.82;;;3.20;99.90;;;;;;5011568;28;20529;-74
2022/12/03 06:55:05;;;;;;;13.77;4.25;;;3.20;99.90;;;;;;5003403;28;20530;-74
2022/12/03 06:57:31;;;;;;;11.00;4.25;;;3.20;99.90;;;;;;5009418;28;20052;-74
2022/12/03 06:59:57;;;;;;;9.85;5.20;;;3.20;99.90;;;;;;5008762;28;20037;-74
2022/12/03 07:02:23;;;;;;;10.98;4.35;;;3.20;99.90;;;;;;5010130;28;20038;-74
2022/12/03 07:04:48;;;;;;;9.23;4.32;;;3.20;99.90;;;;;;5007222;28;20052;-74
2022/12/03 07:07:14;;;;;;;9.95;4.13;;;3.20;99.90;;;;;;5014091;28;20037;-74
2022/12/03 07:09:39;;;;;;;6.72;3.45;;;3.20;99.90;;;;;;5006160;28;20100;-74
2022/12/03 07:12:05;;;;;;;10.13;3.90;;;3.20;99.90;;;;;;4991069;28;20047;-74
2022/12/03 07:14:31;;;;;;;9.52;3.65;;;3.20;99.90;;;;;;5009616;28;20104;-74
2022/12/03 07:16:56;;;;;;;14.90;5.47;;;3.10;99.90;;;;;;5006304;28;20046;-74
2022/12/03 07:19:22;;;;;;;11.43;4.30;;;3.10;99.90;;;;;;5007192;28;20140;-73
2022/12/03 07:21:47;;;;;;;17.85;5.18;;;3.10;99.90;;;;;;5009382;28;20073;-74
2022/12/03 07:24:13;;;;;;;13.65;5.15;;;3.10;99.90;;;;;;5008538;28;20491;-73
2022/12/03 07:26:39;;;;;;;11.05;4.47;;;3.10;99.90;;;;;;5008165;28;20038;-73
2022/12/03 07:29:04;;;;;;;15.73;5.10;;;3.10;99.90;;;;;;4984304;28;20037;-73
2022/12/03 07:31:30;;;;;;;13.27;4.32;;;3.10;99.90;;;;;;5003967;28;20037;-73
2022/12/03 07:33:56;;;;;;;12.35;3.90;;;3.00;99.90;;;;;;4994543;28;20088;-73
2022/12/03 07:36:21;;;;;;;9.98;4.53;;;3.00;99.90;;;;;;5003028;28;20051;-73
2022/12/03 07:38:47;;;;;;;12.02;5.10;;;3.00;99.90;;;;;;4981740;28;20050;-73
2022/12/03 07:41:13;;;;;;;14.82;4.88;;;3.00;99.90;;;;;;4989068;28;20045;-73
2022/12/03 07:43:38;;;;;;;11.48;5.35;;;3.00;99.90;;;;;;5008630;28;20042;-73
2022/12/03 07:46:04;;;;;;;12.93;4.75;;;3.00;99.90;;;;;;5007956;28;20038;-73
2022/12/03 07:48:30;;;;;;;10.18;4.95;;;3.00;99.90;;;;;;5007151;28;20514;-73
2022/12/03 07:50:55;;;;;;;9.93;3.95;;;3.00;99.90;;;;;;5005536;28;20037;-73
2022/12/03 07:53:21;;;;;;;13.15;5.72;;;3.00;99.90;;;;;;5009974;28;20125;-74
2022/12/03 07:55:46;;;;;;;8.25;4.18;;;3.00;99.90;;;;;;4999372;28;20057;-73
2022/12/03 07:58:12;;;;;;;15.00;5.25;;;3.00;99.90;;;;;;5004855;28;20630;-73
2022/12/03 08:00:37;;;;;;;10.98;4.22;;;2.90;99.90;;;;;;4996158;28;20037;-73
2022/12/03 08:03:03;;;;;;;13.85;5.53;;;3.00;99.90;;;;;;4999090;28;20030;-73
2022/12/03 08:05:29;;;;;;;14.40;5.22;;;2.90;99.90;;;;;;4995402;28;20379;-73
2022/12/03 08:07:55;;;;;;;11.60;5.55;;;2.90;99.90;;;;;;4996624;28;20053;-74
2022/12/03 08:10:20;;;;;;;11.25;5.30;;;2.90;99.90;;;;;;4995699;28;20032;-73
2022/12/03 08:12:46;;;;;;;16.85;6.78;;;2.90;99.90;;;;;;4990878;28;20042;-73
2022/12/03 08:15:17;;;;;;;13.77;6.03;;;2.90;99.90;;;;;;4997742;28;20037;-74
2022/12/03 08:17:44;;;;;;;15.60;6.05;;;2.90;99.90;;;;;;4994872;28;21139;-73
2022/12/03 08:20:14;;;;;;;12.68;5.35;;;2.90;99.90;;;;;;5000196;28;20484;-74
2022/12/03 08:22:41;;;;;;;14.57;5.40;;;2.80;99.90;;;;;;4997931;28;20542;-73
2022/12/03 08:25:21;;;;;;;14.13;6.00;;;2.80;99.90;;;;;;4983161;28;20080;-74
2022/12/03 08:27:47;;;;;;;14.38;4.55;;;2.80;99.90;;;;;;4995914;28;20037;-74
2022/12/03 08:30:15;;;;;;;15.82;5.72;;;2.80;99.90;;;;;;4996207;28;20385;-73
2022/12/03 08:32:41;;;;;;;15.07;6.07;;;2.90;99.90;;;;;;4997412;28;20100;-73
2022/12/03 08:35:20;;;;;;;13.55;5.45;;;2.90;99.90;;;;;;4999526;28;20154;-74
2022/12/03 08:37:47;;;;;;;21.83;7.57;;;2.90;99.90;;;;;;4996417;28;20033;-74
2022/12/03 08:40:22;;;;;;;17.52;5.70;;;2.90;99.90;;;;;;4999683;28;20503;-74
2022/12/03 08:42:48;;;;;;;13.25;6.05;;;2.90;99.90;;;;;;4998249;28;20139;-73
2022/12/03 08:45:30;;;;;;;18.48;5.63;;;2.90;99.90;;;;;;4984488;28;20501;-74
2022/12/03 08:48:12;;;;;;;14.20;5.57;;;2.90;99.90;;;;;;4991952;28;20056;-74
2022/12/03 08:50:39;;;;;;;15.02;5.47;;;2.90;99.90;;;;;;4997049;28;20033;-75
2022/12/03 08:53:28;;;;;;;15.25;5.35;;;2.90;99.90;;;;;;4975187;28;20033;-75
2022/12/03 08:55:56;;;;;;;13.13;7.22;;;3.00;99.90;;;;;;5001199;28;20032;-74
2022/12/03 08:58:41;;;;;;;13.88;5.70;;;2.90;99.90;;;;;;5003585;28;20454;-74
2022/12/03 09:01:09;;;;;;;11.70;5.55;;;2.90;99.90;;;;;;5013735;28;20352;-74
2022/12/03 09:03:43;;;;;;;13.25;5.10;;;2.90;99.90;;;;;;5012048;28;20045;-74
2022/12/03 09:06:08;;;;;;;17.02;7.40;;;3.00;99.90;;;;;;5022509;28;20121;-74
2022/12/03 09:08:34;;;;;;;15.48;6.72;;;3.00;99.90;;;;;;5012524;28;20053;-74
2022/12/03 09:11:00;;;;;;;22.02;8.02;;;3.00;99.90;;;;;;5006563;28;20037;-74
2022/12/03 09:13:25;;;;;;;20.67;7.80;;;3.00;99.90;;;;;;5015002;28;20048;-74
2022/12/03 09:15:51;;;;;;;18.13;7.28;;;3.00;99.90;;;;;;5009183;28;20473;-74
2022/12/03 09:18:16;;;;;;;16.70;7.85;;;3.00;99.90;;;;;;5023597;28;20048;-74
2022/12/03 09:20:42;;;;;;;14.65;7.05;;;3.00;99.90;;;;;;5015381;28;20061;-74
2022/12/03 09:23:08;;;;;;;21.98;8.07;;;3.00;99.90;;;;;;5005189;28;20050;-75
2022/12/03 09:25:33;;;;;;;13.60;6.68;;;2.90;99.90;;;;;;5001214;28;20068;-74
2022/12/03 09:27:59;;;;;;;23.17;8.00;;;2.90;99.90;;;;;;5010398;28;20518;-73
2022/12/03 09:30:24;;;;;;;15.57;7.90;;;3.00;99.90;;;;;;5005537;28;21003;-74
2022/12/03 09:32:50;;;;;;;20.45;7.88;;;2.90;99.90;;;;;;5000419;28;20045;-74
2022/12/03 09:35:16;;;;;;;20.73;8.15;;;3.00;99.90;;;;;;4992579;28;20495;-74
2022/12/03 09:37:42;;;;;;;17.20;7.38;;;3.00;99.90;;;;;;5001182;28;20129;-74
2022/12/03 09:40:09;;;;;;;16.33;6.53;;;3.00;99.90;;;;;;5006296;28;20037;-74
2022/12/03 09:42:36;;;;;;;16.48;5.78;;;3.00;99.90;;;;;;5003483;28;20112;-74
2022/12/03 09:45:04;;;;;;;22.13;8.00;;;3.00;99.90;;;;;;4998019;28;20115;-73
2022/12/03 09:47:30;;;;;;;18.05;7.00;;;3.00;99.90;;;;;;5001606;28;20400;-74
2022/12/03 09:49:57;;;;;;;18.02;7.00;;;3.00;99.90;;;;;;4984645;28;20442;-73
2022/12/03 09:52:26;;;;;;;16.95;7.25;;;3.00;99.90;;;;;;4983959;28;20660;-74
2022/12/03 09:54:51;;;;;;;19.95;7.78;;;3.00;99.90;;;;;;4977362;28;20039;-73
2022/12/03 09:57:18;;;;;;;19.65;7.45;;;3.10;99.90;;;;;;5018017;28;20038;-74
2022/12/03 09:59:44;;;;;;;12.18;5.20;;;3.10;99.90;;;;;;4985155;28;20407;-73
2022/12/03 10:02:23;;;;;;;22.90;7.28;;;3.00;99.90;;;;;;4985627;28;20119;-73
2022/12/03 10:04:49;;;;;;;15.90;7.22;;;3.00;99.90;;;;;;4998948;28;20092;-73
2022/12/03 10:07:15;;;;;;;13.70;7.40;;;3.00;99.90;;;;;;4995100;28;20250;-74
2022/12/03 10:09:40;;;;;;;20.55;8.52;;;3.00;99.90;;;;;;4997226;28;20117;-74
2022/12/03 10:12:12;;;;;;;22.33;6.68;;;3.00;99.90;;;;;;4983016;28;20046;-74
2022/12/03 10:14:39;;;;;;;18.73;6.60;;;3.10;99.90;;;;;;4999359;28;20100;-73
2022/12/03 10:17:05;;;;;;;27.77;7.55;;;3.00;99.90;;;;;;4982328;28;20072;-73
2022/12/03 10:19:32;;;;;;;15.88;6.35;;;3.00;99.90;;;;;;5014627;28;20128;-73
2022/12/03 10:21:58;;;;;;;17.60;6.70;;;3.00;99.90;;;;;;5005542;28;20052;-74
2022/12/03 10:24:30;;;;;;;22.50;6.93;;;3.00;99.90;;;;;;4997877;28;20034;-69
2022/12/03 10:27:01;;;;;;;22.30;7.22;;;3.00;99.90;;;;;;4997460;28;20046;-71
2022/12/03 10:29:32;;;;;;;19.80;8.05;;;3.00;99.90;;;;;;4985404;28;20123;-78
2022/12/03 10:32:03;;;;;;;16.00;6.38;;;3.00;99.90;;;;;;4986112;28;20041;-73
2022/12/03 10:34:35;;;;;;;19.75;6.32;;;3.00;99.90;;;;;;4997650;28;20045;-72
2022/12/03 10:37:13;;;;;;;15.35;7.63;;;3.00;99.90;;;;;;5015455;28;20038;-72
2022/12/03 10:39:55;;;;;;;17.77;8.10;;;3.00;99.90;;;;;;5000761;28;20038;-73
2022/12/03 10:42:22;;;;;;;12.75;5.43;;;3.00;99.90;;;;;;5000015;28;20048;-73
2022/12/03 10:44:47;;;;;;;13.65;5.97;;;3.00;99.90;;;;;;4984506;28;20046;-73
2022/12/03 10:47:14;;;;;;;18.48;6.97;;;3.00;99.90;;;;;;4992737;28;20092;-73
2022/12/03 10:49:40;;;;;;;19.08;6.97;;;3.00;99.90;;;;;;4985176;28;20069;-72
2022/12/03 10:52:21;;;;;;;20.10;8.07;;;3.00;99.90;;;;;;4992441;28;20566;-72
2022/12/03 10:54:47;;;;;;;24.40;7.30;;;3.00;99.90;;;;;;4994706;28;20050;-73
2022/12/03 10:57:13;;;;;;;26.88;8.70;;;3.00;99.90;;;;;;4997601;28;20165;-72
2022/12/03 10:59:40;;;;;;;18.95;7.10;;;3.00;99.90;;;;;;5002164;28;20506;-72
2022/12/03 11:02:19;;;;;;;14.63;5.80;;;3.00;99.90;;;;;;4999071;28;20087;-72
2022/12/03 11:04:45;;;;;;;15.93;6.00;;;3.00;99.90;;;;;;4998865;28;20404;-73
2022/12/03 11:07:15;;;;;;;14.52;7.30;;;3.00;99.90;;;;;;4996802;28;20046;-73
2022/12/03 11:09:44;;;;;;;24.08;7.55;;;3.10;99.90;;;;;;4982753;28;20042;-73
2022/12/03 11:12:18;;;;;;;15.45;7.18;;;3.00;99.90;;;;;;4997906;28;20041;-73
2022/12/03 11:14:53;;;;;;;16.15;7.35;;;3.00;99.90;;;;;;4997478;28;20088;-73
2022/12/03 11:17:48;;;;;;;26.98;8.15;;;2.90;99.90;;;;;;4999998;28;20184;-73
2022/12/03 11:20:19;;;;;;;20.73;7.35;;;2.90;99.90;;;;;;4974716;28;20050;-73
2022/12/03 11:22:47;;;;;;;19.45;7.65;;;2.90;99.90;;;;;;4971932;28;20054;-73
2022/12/03 11:25:25;;;;;;;22.38;9.73;;;2.80;99.90;;;;;;4996712;28;20046;-73
2022/12/03 11:28:09;;;;;;;19.02;7.65;;;2.80;99.90;;;;;;4983025;28;20646;-73
2022/12/03 11:30:50;;;;;;;17.55;7.68;;;2.80;99.90;;;;;;4993885;28;20479;-73
2022/12/03 11:33:33;;;;;;;14.70;6.88;;;2.80;99.90;;;;;;4985361;28;20034;-73
2022/12/03 11:36:11;;;;;;;18.10;8.35;;;2.90;99.90;;;;;;4991928;28;20175;-73
2022/12/03 11:38:37;;;;;;;19.08;8.07;;;2.80;99.90;;;;;;4994371;28;20061;-73
2022/12/03 11:41:15;;;;;;;14.30;8.18;;;2.80;99.90;;;;;;4979889;28;20121;-73
2022/12/03 11:43:55;;;;;;;26.45;9.13;;;2.80;99.90;;;;;;4998499;28;20223;-73
2022/12/03 11:46:28;;;;;;;20.55;7.95;;;2.80;99.90;;;;;;4978606;28;20468;-73
2022/12/03 11:48:55;;;;;;;19.13;7.05;;;2.90;99.90;;;;;;4997469;28;20046;-73
2022/12/03 11:51:23;;;;;;;16.88;8.00;;;2.80;99.90;;;;;;4996277;28;20563;-73
2022/12/03 11:53:51;;;;;;;19.38;8.10;;;2.90;99.90;;;;;;5000632;28;20038;-73
2022/12/03 11:56:27;;;;;;;18.67;7.00;;;2.90;99.90;;;;;;4995107;28;21430;-73
2022/12/03 11:59:10;;;;;;;18.50;7.78;;;2.90;99.90;;;;;;5020991;28;20060;-73
2022/12/03 12:01:38;;;;;;;19.30;6.00;;;2.90;99.90;;;;;;4992230;28;20045;-73
2022/12/03 12:04:06;;;;;;;17.23;7.15;;;2.80;99.90;;;;;;4984446;28;20034;-73
2022/12/03 12:06:43;;;;;;;15.60;7.13;;;2.80;99.90;;;;;;4994984;28;20068;-73
2022/12/03 12:09:09;;;;;;;15.45;8.15;;;2.70;99.90;;;;;;4993944;28;20392;-73
2022/12/03 12:11:40;;;;;;;21.67;7.50;;;2.80;99.90;;;;;;4993957;28;20743;-73
2022/12/03 12:14:28;;;;;;;18.30;7.13;;;2.80;99.90;;;;;;5102912;27;20519;-72
2022/12/03 12:16:54;;;;;;;16.33;7.13;;;2.80;99.90;;;;;;5073132;28;20134;-72
2022/12/03 12:19:30;;;;;;;19.98;7.45;;;2.80;99.90;;;;;;5065629;28;20040;-72
2022/12/03 12:22:15;;;;;;;21.35;8.93;;;2.80;99.90;;;;;;5051937;28;20140;-72
2022/12/03 12:24:47;;;;;;;20.05;7.57;;;2.80;99.90;;;;;;5071058;28;20094;-72
2022/12/03 12:27:32;;;;;;;21.52;7.40;;;2.80;99.90;;;;;;5072097;28;20043;-72
2022/12/03 12:30:01;;;;;;;15.38;7.07;;;2.80;99.90;;;;;;5058509;28;20221;-72
2022/12/03 12:32:33;;;;;;;22.05;9.10;;;2.80;99.90;;;;;;5067239;28;20032;-72
2022/12/03 12:35:12;;;;;;;16.50;6.80;;;2.90;99.90;;;;;;5083244;28;20477;-72
2022/12/03 12:38:04;;;;;;;12.93;6.15;;;2.90;99.90;;;;;;5069000;28;20505;-72
2022/12/03 12:40:32;;;;;;;13.98;5.85;;;2.90;99.90;;;;;;5071902;28;20055;-71
2022/12/03 12:43:07;;;;;;;16.83;7.78;;;2.90;99.90;;;;;;5081610;28;20105;-72
2022/12/03 12:45:34;;;;;;;20.13;8.63;;;2.90;99.90;;;;;;5056605;28;20040;-72
2022/12/03 12:48:12;;;;;;;14.80;6.40;;;2.90;99.90;;;;;;5069974;28;20052;-72
2022/12/03 12:50:39;;;;;;;17.25;8.43;;;3.00;99.90;;;;;;5080628;28;20047;-72
2022/12/03 12:53:24;;;;;;;19.25;9.07;;;3.00;99.90;;;;;;5055611;28;20045;-72
2022/12/03 12:55:55;;;;;;;21.45;7.68;;;2.90;99.90;;;;;;5057129;28;20658;-71
2022/12/03 12:58:21;;;;;;;19.83;7.65;;;2.90;99.90;;;;;;5068819;28;20398;-72
2022/12/03 13:00:57;;;;;;;16.70;7.32;;;2.90;99.90;;;;;;5076649;28;20049;-72
2022/12/03 13:03:31;;;;;;;17.15;7.38;;;2.90;99.90;;;;;;5069950;28;20064;-72
2022/12/03 13:05:57;;;;;;;18.95;7.18;;;2.90;99.90;;;;;;5089520;28;20466;-72
2022/12/03 13:08:38;;;;;;;16.58;6.97;;;2.90;99.90;;;;;;5091904;28;20067;-72
2022/12/03 13:11:05;;;;;;;16.23;7.05;;;2.90;99.90;;;;;;5079862;28;20417;-72
2022/12/03 13:13:41;;;;;;;15.13;6.15;;;2.90;99.90;;;;;;5070066;28;20045;-72
2022/12/03 13:16:17;;;;;;;15.20;7.97;;;2.90;99.90;;;;;;5058997;28;20089;-72